Terminal Aerodrome Forecast
Issued by NWS

Home | Current Version | Previous Version | Text Only | Print | Product List | Glossary On
Versions: 1 2 3 4 5 6 7 8 9 10 11 12 13 14
000
FTUS46 KSTO 230500
TAFSCK
TAF
KSCK 230520Z 2306/2406 27010G17KT P6SM SCT200
     FM231200 30009KT P6SM SCT200
     FM232100 30012G19KT P6SM BKN200=

USA.gov is the U.S. government's official web portal to all federal, state and local government web resources and services.